createdAt,value
2023-01-28T00:01:31.890Z,3.22
2023-01-28T00:05:35.067Z,3.23
2023-01-28T00:09:39.648Z,3.23
2023-01-28T00:13:44.212Z,3.21
2023-01-28T00:17:47.399Z,3.25
2023-01-28T00:21:50.270Z,3.24
2023-01-28T00:25:54.742Z,3.24
2023-01-28T00:29:59.021Z,3.25
2023-01-28T00:34:02.736Z,3.25
2023-01-28T00:38:06.016Z,3.23
2023-01-28T00:42:09.171Z,3.22
2023-01-28T00:46:14.044Z,3.09
2023-01-28T00:50:17.951Z,3.22
2023-01-28T00:54:20.939Z,3.21
2023-01-28T00:58:25.877Z,3.20
2023-01-28T01:02:30.601Z,3.19
2023-01-28T01:06:36.120Z,3.18
2023-01-28T01:10:40.227Z,3.18
2023-01-28T01:14:43.097Z,3.18
2023-01-28T01:18:49.805Z,3.18
2023-01-28T01:22:53.285Z,3.18
2023-01-28T01:26:56.671Z,3.18
2023-01-28T01:31:04.088Z,3.20
2023-01-28T01:35:11.738Z,3.19
2023-01-28T01:39:14.660Z,3.18
2023-01-28T01:43:18.485Z,3.17
2023-01-28T01:47:25.791Z,3.17
2023-01-28T01:51:34.061Z,3.16
2023-01-28T01:55:40.846Z,3.17
2023-01-28T01:59:46.154Z,3.17
2023-01-28T02:03:56.648Z,3.17
2023-01-28T02:08:21.288Z,3.16
2023-01-28T02:12:28.419Z,3.17
2023-01-28T02:16:32.379Z,3.14
2023-01-28T02:20:50.390Z,3.15
2023-01-28T02:25:34.811Z,3.15
2023-01-28T02:29:45.634Z,3.15
2023-01-28T02:33:55.839Z,3.14
2023-01-28T02:38:05.780Z,3.15
2023-01-28T02:42:13.817Z,3.16
2023-01-28T02:47:04.118Z,3.16
2023-01-28T02:51:17.355Z,3.16
2023-01-28T02:55:27.918Z,3.16
2023-01-28T02:59:42.223Z,3.16
2023-01-28T03:03:54.501Z,3.18
2023-01-28T03:07:59.533Z,3.18
2023-01-28T03:12:23.930Z,3.18
2023-01-28T03:16:44.809Z,3.19
2023-01-28T03:21:13.189Z,3.20
2023-01-28T03:25:39.274Z,3.20
2023-01-28T03:30:03.720Z,3.20
2023-01-28T03:34:24.810Z,3.20
2023-01-28T03:38:42.780Z,3.21
2023-01-28T03:42:47.259Z,3.23
2023-01-28T03:46:50.569Z,3.23
2023-01-28T03:50:57.457Z,3.24
2023-01-28T03:55:01.214Z,3.24
2023-01-28T03:59:05.901Z,3.25
2023-01-28T04:03:16.085Z,3.26
2023-01-28T04:07:19.434Z,3.28
2023-01-28T04:11:25.549Z,3.27
2023-01-28T04:15:31.146Z,3.28
2023-01-28T04:19:37.657Z,3.27
2023-01-28T04:23:40.741Z,3.26
2023-01-28T04:27:43.926Z,3.26
2023-01-28T04:31:48.315Z,3.27
2023-01-28T04:35:51.632Z,3.26
2023-01-28T04:39:54.607Z,3.26
2023-01-28T04:43:57.785Z,3.24
2023-01-28T04:48:02.596Z,3.24
2023-01-28T04:52:08.237Z,3.22
2023-01-28T04:56:11.291Z,3.21
2023-01-28T05:00:15.341Z,3.20
2023-01-28T05:04:20.041Z,3.22
2023-01-28T05:08:23.411Z,3.20
2023-01-28T05:12:26.763Z,3.20
2023-01-28T05:16:29.803Z,3.22
2023-01-28T05:20:34.380Z,3.23
2023-01-28T05:24:37.251Z,3.22
2023-01-28T05:28:40.510Z,3.21
2023-01-28T05:32:43.551Z,3.21
2023-01-28T05:36:50.949Z,3.22
2023-01-28T05:40:53.895Z,3.20
2023-01-28T05:44:57.261Z,3.19
2023-01-28T05:49:00.297Z,3.20
2023-01-28T05:53:06.972Z,3.20
2023-01-28T05:57:09.980Z,3.17
2023-01-28T06:01:13.582Z,3.16
2023-01-28T06:05:16.876Z,3.15
2023-01-28T06:09:21.389Z,3.13
2023-01-28T06:13:24.634Z,3.10
2023-01-28T06:17:27.816Z,3.08
2023-01-28T06:21:30.758Z,3.07
2023-01-28T06:25:35.442Z,3.04
2023-01-28T06:29:38.348Z,3.01
2023-01-28T06:33:41.249Z,2.98
2023-01-28T06:37:47.097Z,2.93
2023-01-28T06:41:51.700Z,2.92
2023-01-28T06:45:55.274Z,2.90
2023-01-28T06:49:58.167Z,2.89
2023-01-28T06:54:01.402Z,2.87
2023-01-28T06:58:05.908Z,2.88
2023-01-28T07:02:11.172Z,2.86
2023-01-28T07:06:14.706Z,2.86
2023-01-28T07:10:18.465Z,2.83
2023-01-28T07:14:23.040Z,2.90
2023-01-28T07:18:26.657Z,2.92
2023-01-28T07:22:29.792Z,2.96
2023-01-28T07:26:33.006Z,3.02
2023-01-28T07:30:37.556Z,3.08
2023-01-28T07:34:43.083Z,3.12
2023-01-28T07:38:46.217Z,3.14
2023-01-28T07:42:49.662Z,3.15
2023-01-28T07:46:54.016Z,3.05
2023-01-28T07:51:00.472Z,3.14
2023-01-28T07:55:03.375Z,3.13
2023-01-28T07:59:06.335Z,3.11
2023-01-28T08:03:15.911Z,3.12
2023-01-28T08:07:19.186Z,3.10
2023-01-28T08:11:23.317Z,3.13
2023-01-28T08:15:27.229Z,3.15
2023-01-28T08:19:31.508Z,3.18
2023-01-28T08:23:35.353Z,3.19
2023-01-28T08:27:38.355Z,3.24
2023-01-28T08:31:41.578Z,3.28
2023-01-28T08:35:46.385Z,3.33
2023-01-28T08:39:49.897Z,3.36
2023-01-28T08:43:52.774Z,3.42
2023-01-28T08:47:57.673Z,3.49
2023-01-28T08:52:01.948Z,3.56
2023-01-28T08:56:05.619Z,3.62
2023-01-28T09:00:13.277Z,3.69
2023-01-28T09:04:16.742Z,3.75
2023-01-28T09:08:21.853Z,3.80
2023-01-28T09:12:25.622Z,3.83
2023-01-28T09:16:29.050Z,3.86
2023-01-28T09:20:32.354Z,3.89
2023-01-28T09:24:38.918Z,3.91
2023-01-28T09:28:42.080Z,3.91
2023-01-28T09:32:45.330Z,3.92
2023-01-28T09:36:48.311Z,3.92
2023-01-28T09:40:53.074Z,3.89
2023-01-28T09:45:07.401Z,3.90
2023-01-28T09:49:20.379Z,3.90
2023-01-28T09:53:26.525Z,3.89
2023-01-28T09:57:38.495Z,3.90
2023-01-28T10:01:48.565Z,3.94
2023-01-28T10:06:03.794Z,3.95
2023-01-28T10:10:15.317Z,3.98
2023-01-28T10:14:32.270Z,4.01
2023-01-28T10:18:39.057Z,4.04
2023-01-28T10:22:47.412Z,4.07
2023-01-28T10:26:50.481Z,4.04
2023-01-28T10:30:54.920Z,4.09
2023-01-28T10:35:00.133Z,4.10
2023-01-28T10:39:03.162Z,4.13
2023-01-28T10:43:06.413Z,4.14
2023-01-28T10:47:15.837Z,4.18
2023-01-28T10:51:20.232Z,4.15
2023-01-28T10:55:25.670Z,4.20
2023-01-28T10:59:30.539Z,4.20
2023-01-28T11:03:36.250Z,4.21
2023-01-28T11:07:39.145Z,4.19
2023-01-28T11:11:42.192Z,4.20
2023-01-28T11:15:49.690Z,4.20
2023-01-28T11:19:55.040Z,4.21
2023-01-28T11:24:01.277Z,4.21
2023-01-28T11:28:09.340Z,4.23
2023-01-28T11:32:20.384Z,4.23
2023-01-28T11:36:26.590Z,4.20
2023-01-28T11:40:30.761Z,4.14
2023-01-28T11:44:33.765Z,4.16
2023-01-28T11:48:46.578Z,4.07
2023-01-28T11:53:10.394Z,4.15
2023-01-28T11:57:24.124Z,4.13
2023-01-28T12:01:36.970Z,4.17
2023-01-28T12:05:48.718Z,4.15
2023-01-28T12:09:57.905Z,4.11
2023-01-28T12:14:13.066Z,4.16
2023-01-28T12:18:31.349Z,4.16
2023-01-28T12:22:58.437Z,4.13
2023-01-28T12:27:13.050Z,4.12
2023-01-28T12:31:34.459Z,4.14
2023-01-28T12:35:51.310Z,4.12
2023-01-28T12:40:07.807Z,4.10
2023-01-28T12:44:15.813Z,4.10
2023-01-28T12:48:24.326Z,4.07
2023-01-28T12:52:34.449Z,4.08
2023-01-28T12:56:43.493Z,4.08
2023-01-28T13:00:52.544Z,4.10
2023-01-28T13:05:05.358Z,4.08
2023-01-28T13:09:18.174Z,4.06
2023-01-28T13:13:29.117Z,4.05
2023-01-28T13:17:35.133Z,4.04
2023-01-28T13:21:47.750Z,4.02
2023-01-28T13:25:53.429Z,4.02
2023-01-28T13:30:06.911Z,4.04
2023-01-28T13:34:29.358Z,4.06
2023-01-28T13:38:34.217Z,4.08
2023-01-28T13:42:38.473Z,4.08
2023-01-28T13:46:41.538Z,4.09
2023-01-28T13:50:47.151Z,4.12
2023-01-28T13:54:56.636Z,4.13
2023-01-28T13:59:25.990Z,4.15
2023-01-28T14:04:10.537Z,4.16
2023-01-28T14:08:48.587Z,4.15
2023-01-28T14:13:06.967Z,4.15
2023-01-28T14:17:18.088Z,4.14
2023-01-28T14:21:22.346Z,4.14
2023-01-28T14:25:37.371Z,4.15
2023-01-28T14:29:50.518Z,4.13
2023-01-28T14:33:53.987Z,4.12
2023-01-28T14:37:57.597Z,4.11
2023-01-28T14:42:04.696Z,4.08
2023-01-28T14:46:21.247Z,4.07
2023-01-28T14:50:36.160Z,4.04
2023-01-28T14:55:00.635Z,4.03
2023-01-28T14:59:16.880Z,4.02
2023-01-28T15:03:25.349Z,3.99
2023-01-28T15:07:29.418Z,4.00
2023-01-28T15:11:32.685Z,4.03
2023-01-28T15:15:39.304Z,4.02
2023-01-28T15:19:42.499Z,4.04
2023-01-28T15:23:45.604Z,4.04
2023-01-28T15:27:49.599Z,4.05
2023-01-28T15:31:54.634Z,4.07
2023-01-28T15:35:59.988Z,4.05
2023-01-28T15:40:06.232Z,4.05
2023-01-28T15:44:19.393Z,4.06
2023-01-28T15:48:26.897Z,4.06
2023-01-28T15:52:37.514Z,4.02
2023-01-28T15:56:40.558Z,3.99
2023-01-28T16:00:43.748Z,3.96
2023-01-28T16:04:59.568Z,3.93
2023-01-28T16:09:05.226Z,3.90
2023-01-28T16:13:15.712Z,3.89
2023-01-28T16:17:21.164Z,3.87
2023-01-28T16:21:27.962Z,3.87
2023-01-28T16:25:33.651Z,3.85
2023-01-28T16:29:37.563Z,3.85
2023-01-28T16:33:40.916Z,3.84
2023-01-28T16:37:46.288Z,3.83
2023-01-28T16:41:49.994Z,3.81
2023-01-28T16:45:53.029Z,3.80
2023-01-28T16:49:56.416Z,3.81
2023-01-28T16:54:01.067Z,3.80
2023-01-28T16:58:04.324Z,3.81
2023-01-28T17:02:07.719Z,3.81
2023-01-28T17:06:16.377Z,3.83
2023-01-28T17:10:21.194Z,3.86
2023-01-28T17:14:24.350Z,3.86
2023-01-28T17:18:27.609Z,3.88
2023-01-28T17:22:30.520Z,3.91
2023-01-28T17:26:35.635Z,3.94
2023-01-28T17:30:41.579Z,3.95
2023-01-28T17:34:44.614Z,3.97
2023-01-28T17:38:49.387Z,3.97
2023-01-28T17:42:53.707Z,3.97
2023-01-28T17:46:56.957Z,3.97
2023-01-28T17:51:00.001Z,3.96
2023-01-28T17:55:03.231Z,3.96
2023-01-28T17:59:07.972Z,3.95
2023-01-28T18:03:13.663Z,3.97
2023-01-28T18:07:16.617Z,3.95
2023-01-28T18:11:21.604Z,3.94
2023-01-28T18:15:26.485Z,3.93
2023-01-28T18:19:30.135Z,3.93
2023-01-28T18:23:33.578Z,3.92
2023-01-28T18:27:37.154Z,3.92
2023-01-28T18:31:41.540Z,3.93
2023-01-28T18:35:45.255Z,3.93
2023-01-28T18:39:48.256Z,3.95
2023-01-28T18:43:51.740Z,3.95
2023-01-28T18:47:56.106Z,3.97
2023-01-28T18:51:59.598Z,3.98
2023-01-28T18:56:04.252Z,3.97
2023-01-28T19:00:50.555Z,3.98
2023-01-28T19:04:58.020Z,3.99
2023-01-28T19:09:03.629Z,3.99
2023-01-28T19:13:07.143Z,3.99
2023-01-28T19:17:10.318Z,3.99
2023-01-28T19:21:15.350Z,3.99
2023-01-28T19:25:19.074Z,3.98
2023-01-28T19:29:21.974Z,3.98
2023-01-28T19:33:25.350Z,3.98
2023-01-28T19:37:30.049Z,3.96
2023-01-28T19:41:33.295Z,3.95
2023-01-28T19:45:36.499Z,3.95
2023-01-28T19:49:39.394Z,3.96
2023-01-28T19:53:46.013Z,3.93
2023-01-28T19:57:50.312Z,3.96
2023-01-28T20:01:53.423Z,3.97
2023-01-28T20:06:01.227Z,3.99
2023-01-28T20:10:10.161Z,4.00
2023-01-28T20:14:16.452Z,4.02
2023-01-28T20:18:19.494Z,4.04
2023-01-28T20:22:22.863Z,4.06
2023-01-28T20:26:31.765Z,4.09
2023-01-28T20:30:35.293Z,4.10
2023-01-28T20:34:38.529Z,4.12
2023-01-28T20:38:43.570Z,4.13
2023-01-28T20:42:48.100Z,4.07
2023-01-28T20:46:51.373Z,4.12
2023-01-28T20:50:54.384Z,4.11
2023-01-28T20:54:57.939Z,4.13
2023-01-28T20:59:05.360Z,4.14
2023-01-28T21:03:10.094Z,4.14
2023-01-28T21:07:13.444Z,4.09
2023-01-28T21:11:16.914Z,4.16
2023-01-28T21:15:21.681Z,4.16
2023-01-28T21:19:25.143Z,4.15
2023-01-28T21:23:28.387Z,4.18
2023-01-28T21:27:33.178Z,4.20
2023-01-28T21:31:37.793Z,4.23
2023-01-28T21:35:42.622Z,4.26
2023-01-28T21:39:45.513Z,4.30
2023-01-28T21:43:50.507Z,4.34
2023-01-28T21:47:56.357Z,4.35
2023-01-28T21:51:59.295Z,4.38
2023-01-28T21:56:02.517Z,4.40
2023-01-28T22:00:06.494Z,4.41
2023-01-28T22:04:11.036Z,4.43
2023-01-28T22:08:13.916Z,4.42
2023-01-28T22:12:17.356Z,4.43
2023-01-28T22:16:20.657Z,4.42
2023-01-28T22:20:27.093Z,4.41
2023-01-28T22:24:30.880Z,4.39
2023-01-28T22:28:34.192Z,4.36
2023-01-28T22:32:37.593Z,4.31
2023-01-28T22:36:42.137Z,4.30
2023-01-28T22:40:45.579Z,4.28
2023-01-28T22:44:48.476Z,4.26
2023-01-28T22:48:52.341Z,4.24
2023-01-28T22:52:56.938Z,4.22
2023-01-28T22:57:00.345Z,4.20
2023-01-28T23:01:03.545Z,4.17
2023-01-28T23:05:07.975Z,4.15
2023-01-28T23:09:12.507Z,4.11
2023-01-28T23:13:16.306Z,4.08
2023-01-28T23:17:37.391Z,3.99
2023-01-28T23:21:57.174Z,4.03
2023-01-28T23:26:06.930Z,4.02
2023-01-28T23:30:12.333Z,4.00
2023-01-28T23:34:16.663Z,4.02
2023-01-28T23:38:19.715Z,4.01
2023-01-28T23:42:26.544Z,4.01
2023-01-28T23:46:39.067Z,4.01
2023-01-28T23:50:43.191Z,4.01
2023-01-28T23:54:46.089Z,4.01
2023-01-28T23:58:51.223Z,4.02
